sensor_id;sensor_type;location;lat;lon;timestamp;P1;durP1;ratioP1;P2;durP2;ratioP2
9671;SDS011;4874;43.568;27.824;2023-04-03T00:00:39;4.40;;;2.40;;
9671;SDS011;4874;43.568;27.824;2023-04-03T00:05:32;3.70;;;2.13;;
9671;SDS011;4874;43.568;27.824;2023-04-03T00:10:28;5.18;;;2.78;;
9671;SDS011;4874;43.568;27.824;2023-04-03T00:12:55;5.72;;;3.30;;
9671;SDS011;4874;43.568;27.824;2023-04-03T00:17:48;5.88;;;2.95;;
9671;SDS011;4874;43.568;27.824;2023-04-03T00:22:41;5.05;;;3.20;;
9671;SDS011;4874;43.568;27.824;2023-04-03T00:25:08;5.28;;;3.03;;
9671;SDS011;4874;43.568;27.824;2023-04-03T00:27:36;6.05;;;3.80;;
9671;SDS011;4874;43.568;27.824;2023-04-03T00:30:04;5.45;;;3.30;;
9671;SDS011;4874;43.568;27.824;2023-04-03T00:32:32;6.80;;;3.08;;
9671;SDS011;4874;43.568;27.824;2023-04-03T00:34:59;6.20;;;3.25;;
9671;SDS011;4874;43.568;27.824;2023-04-03T00:39:53;7.30;;;3.20;;
9671;SDS011;4874;43.568;27.824;2023-04-03T00:42:19;8.80;;;3.53;;
9671;SDS011;4874;43.568;27.824;2023-04-03T00:47:13;7.50;;;3.35;;
9671;SDS011;4874;43.568;27.824;2023-04-03T00:49:43;8.30;;;3.70;;
9671;SDS011;4874;43.568;27.824;2023-04-03T00:52:13;8.48;;;3.72;;
9671;SDS011;4874;43.568;27.824;2023-04-03T00:54:43;5.38;;;3.53;;
9671;SDS011;4874;43.568;27.824;2023-04-03T00:57:13;7.95;;;3.55;;
9671;SDS011;4874;43.568;27.824;2023-04-03T00:59:45;8.70;;;3.70;;
9671;SDS011;4874;43.568;27.824;2023-04-03T01:02:15;6.97;;;3.50;;
9671;SDS011;4874;43.568;27.824;2023-04-03T01:04:42;6.15;;;3.53;;
9671;SDS011;4874;43.568;27.824;2023-04-03T01:07:14;5.20;;;3.40;;
9671;SDS011;4874;43.568;27.824;2023-04-03T01:09:44;8.60;;;4.07;;
9671;SDS011;4874;43.568;27.824;2023-04-03T01:12:16;10.43;;;4.50;;
9671;SDS011;4874;43.568;27.824;2023-04-03T01:14:45;10.80;;;4.68;;
9671;SDS011;4874;43.568;27.824;2023-04-03T01:17:24;9.75;;;4.93;;
9671;SDS011;4874;43.568;27.824;2023-04-03T01:25:25;10.40;;;5.35;;
9671;SDS011;4874;43.568;27.824;2023-04-03T01:27:52;11.63;;;5.00;;
9671;SDS011;4874;43.568;27.824;2023-04-03T01:30:20;10.50;;;5.20;;
9671;SDS011;4874;43.568;27.824;2023-04-03T01:32:48;10.90;;;5.65;;
9671;SDS011;4874;43.568;27.824;2023-04-03T01:37:41;8.73;;;4.78;;
9671;SDS011;4874;43.568;27.824;2023-04-03T01:40:08;9.73;;;5.43;;
9671;SDS011;4874;43.568;27.824;2023-04-03T01:42:35;8.70;;;5.05;;
9671;SDS011;4874;43.568;27.824;2023-04-03T01:47:29;11.18;;;5.85;;
9671;SDS011;4874;43.568;27.824;2023-04-03T01:49:55;14.57;;;6.18;;
9671;SDS011;4874;43.568;27.824;2023-04-03T01:52:22;12.25;;;6.78;;
9671;SDS011;4874;43.568;27.824;2023-04-03T01:54:49;11.90;;;6.22;;
9671;SDS011;4874;43.568;27.824;2023-04-03T01:57:16;12.07;;;6.32;;
9671;SDS011;4874;43.568;27.824;2023-04-03T02:02:10;17.13;;;8.32;;
9671;SDS011;4874;43.568;27.824;2023-04-03T02:04:38;17.45;;;10.10;;
9671;SDS011;4874;43.568;27.824;2023-04-03T02:07:05;17.20;;;10.05;;
9671;SDS011;4874;43.568;27.824;2023-04-03T02:11:58;13.20;;;7.93;;
9671;SDS011;4874;43.568;27.824;2023-04-03T02:14:25;12.80;;;7.45;;
9671;SDS011;4874;43.568;27.824;2023-04-03T02:16:53;9.95;;;5.97;;
9671;SDS011;4874;43.568;27.824;2023-04-03T02:19:20;10.95;;;6.15;;
9671;SDS011;4874;43.568;27.824;2023-04-03T02:21:47;7.85;;;5.30;;
9671;SDS011;4874;43.568;27.824;2023-04-03T02:26:41;8.38;;;4.55;;
9671;SDS011;4874;43.568;27.824;2023-04-03T02:29:07;8.02;;;4.82;;
9671;SDS011;4874;43.568;27.824;2023-04-03T02:34:00;6.53;;;4.25;;
9671;SDS011;4874;43.568;27.824;2023-04-03T02:36:27;8.00;;;4.22;;
9671;SDS011;4874;43.568;27.824;2023-04-03T02:38:55;6.18;;;3.53;;
9671;SDS011;4874;43.568;27.824;2023-04-03T02:41:22;5.28;;;3.63;;
9671;SDS011;4874;43.568;27.824;2023-04-03T02:43:49;5.05;;;3.08;;
9671;SDS011;4874;43.568;27.824;2023-04-03T02:46:16;5.85;;;3.45;;
9671;SDS011;4874;43.568;27.824;2023-04-03T02:51:09;4.78;;;3.08;;
9671;SDS011;4874;43.568;27.824;2023-04-03T02:53:36;5.65;;;2.42;;
9671;SDS011;4874;43.568;27.824;2023-04-03T02:56:03;4.72;;;2.80;;
9671;SDS011;4874;43.568;27.824;2023-04-03T03:00:56;4.43;;;2.58;;
9671;SDS011;4874;43.568;27.824;2023-04-03T03:03:22;5.45;;;2.83;;
9671;SDS011;4874;43.568;27.824;2023-04-03T03:05:49;5.32;;;2.50;;
9671;SDS011;4874;43.568;27.824;2023-04-03T03:10:46;5.88;;;3.38;;
9671;SDS011;4874;43.568;27.824;2023-04-03T03:15:39;6.30;;;3.40;;
9671;SDS011;4874;43.568;27.824;2023-04-03T03:18:06;7.80;;;3.35;;
9671;SDS011;4874;43.568;27.824;2023-04-03T03:20:33;5.97;;;3.35;;
9671;SDS011;4874;43.568;27.824;2023-04-03T03:22:59;6.45;;;3.50;;
9671;SDS011;4874;43.568;27.824;2023-04-03T03:25:26;7.55;;;3.58;;
9671;SDS011;4874;43.568;27.824;2023-04-03T03:27:53;6.75;;;3.50;;
9671;SDS011;4874;43.568;27.824;2023-04-03T03:30:19;10.38;;;3.63;;
9671;SDS011;4874;43.568;27.824;2023-04-03T03:32:47;5.57;;;2.80;;
9671;SDS011;4874;43.568;27.824;2023-04-03T03:37:40;6.88;;;3.97;;
9671;SDS011;4874;43.568;27.824;2023-04-03T03:42:34;7.53;;;4.03;;
9671;SDS011;4874;43.568;27.824;2023-04-03T03:45:00;6.95;;;3.97;;
9671;SDS011;4874;43.568;27.824;2023-04-03T03:49:54;10.15;;;4.60;;
9671;SDS011;4874;43.568;27.824;2023-04-03T03:52:21;8.73;;;5.25;;
9671;SDS011;4874;43.568;27.824;2023-04-03T03:54:47;9.32;;;5.13;;
9671;SDS011;4874;43.568;27.824;2023-04-03T03:59:41;11.68;;;5.28;;
9671;SDS011;4874;43.568;27.824;2023-04-03T04:02:10;11.90;;;5.55;;
9671;SDS011;4874;43.568;27.824;2023-04-03T04:04:37;11.18;;;5.38;;
9671;SDS011;4874;43.568;27.824;2023-04-03T04:07:04;7.82;;;4.28;;
9671;SDS011;4874;43.568;27.824;2023-04-03T04:11:57;7.03;;;3.90;;
9671;SDS011;4874;43.568;27.824;2023-04-03T04:14:24;7.38;;;4.00;;
9671;SDS011;4874;43.568;27.824;2023-04-03T04:19:17;6.03;;;4.32;;
9671;SDS011;4874;43.568;27.824;2023-04-03T04:21:44;5.93;;;3.20;;
9671;SDS011;4874;43.568;27.824;2023-04-03T04:24:11;8.63;;;3.72;;
9671;SDS011;4874;43.568;27.824;2023-04-03T04:26:38;5.72;;;3.55;;
9671;SDS011;4874;43.568;27.824;2023-04-03T04:29:05;8.30;;;4.05;;
9671;SDS011;4874;43.568;27.824;2023-04-03T04:33:58;8.98;;;4.20;;
9671;SDS011;4874;43.568;27.824;2023-04-03T04:36:24;7.32;;;4.65;;
9671;SDS011;4874;43.568;27.824;2023-04-03T04:38:51;8.13;;;4.75;;
9671;SDS011;4874;43.568;27.824;2023-04-03T04:41:19;8.18;;;4.47;;
9671;SDS011;4874;43.568;27.824;2023-04-03T04:43:49;8.25;;;4.50;;
9671;SDS011;4874;43.568;27.824;2023-04-03T04:46:16;7.45;;;4.70;;
9671;SDS011;4874;43.568;27.824;2023-04-03T04:48:43;8.90;;;4.90;;
9671;SDS011;4874;43.568;27.824;2023-04-03T04:51:11;9.98;;;5.35;;
9671;SDS011;4874;43.568;27.824;2023-04-03T04:53:38;9.50;;;5.65;;
9671;SDS011;4874;43.568;27.824;2023-04-03T04:56:05;11.38;;;5.60;;
9671;SDS011;4874;43.568;27.824;2023-04-03T04:58:32;9.68;;;5.20;;
9671;SDS011;4874;43.568;27.824;2023-04-03T05:01:05;14.32;;;6.38;;
9671;SDS011;4874;43.568;27.824;2023-04-03T05:03:33;15.02;;;5.78;;
9671;SDS011;4874;43.568;27.824;2023-04-03T05:06:00;12.05;;;5.43;;
9671;SDS011;4874;43.568;27.824;2023-04-03T05:08:27;17.50;;;8.35;;
9671;SDS011;4874;43.568;27.824;2023-04-03T05:10:54;17.98;;;8.75;;
9671;SDS011;4874;43.568;27.824;2023-04-03T05:13:21;25.30;;;11.50;;
9671;SDS011;4874;43.568;27.824;2023-04-03T05:18:15;20.98;;;10.45;;
9671;SDS011;4874;43.568;27.824;2023-04-03T05:23:10;16.70;;;9.30;;
9671;SDS011;4874;43.568;27.824;2023-04-03T05:25:38;21.13;;;10.38;;
9671;SDS011;4874;43.568;27.824;2023-04-03T05:28:05;39.30;;;14.75;;
9671;SDS011;4874;43.568;27.824;2023-04-03T05:30:32;53.25;;;19.40;;
9671;SDS011;4874;43.568;27.824;2023-04-03T05:32:59;36.40;;;14.07;;
9671;SDS011;4874;43.568;27.824;2023-04-03T05:37:52;47.35;;;17.30;;
9671;SDS011;4874;43.568;27.824;2023-04-03T05:40:19;29.13;;;12.48;;
9671;SDS011;4874;43.568;27.824;2023-04-03T05:42:46;25.63;;;10.18;;
9671;SDS011;4874;43.568;27.824;2023-04-03T05:45:12;16.40;;;7.97;;
9671;SDS011;4874;43.568;27.824;2023-04-03T05:47:39;10.40;;;6.28;;
9671;SDS011;4874;43.568;27.824;2023-04-03T05:52:33;23.70;;;9.85;;
9671;SDS011;4874;43.568;27.824;2023-04-03T05:55:02;17.38;;;8.02;;
9671;SDS011;4874;43.568;27.824;2023-04-03T05:57:29;13.52;;;7.07;;
9671;SDS011;4874;43.568;27.824;2023-04-03T05:59:56;10.20;;;5.88;;
9671;SDS011;4874;43.568;27.824;2023-04-03T06:02:24;9.82;;;5.10;;
9671;SDS011;4874;43.568;27.824;2023-04-03T06:04:52;8.20;;;4.40;;
9671;SDS011;4874;43.568;27.824;2023-04-03T06:07:20;6.82;;;4.25;;
9671;SDS011;4874;43.568;27.824;2023-04-03T06:09:50;7.85;;;5.10;;
9671;SDS011;4874;43.568;27.824;2023-04-03T06:12:20;13.52;;;4.88;;
9671;SDS011;4874;43.568;27.824;2023-04-03T06:14:47;8.50;;;4.45;;
9671;SDS011;4874;43.568;27.824;2023-04-03T06:17:15;7.38;;;3.15;;
9671;SDS011;4874;43.568;27.824;2023-04-03T06:19:43;7.15;;;4.22;;
9671;SDS011;4874;43.568;27.824;2023-04-03T06:22:10;5.90;;;3.80;;
9671;SDS011;4874;43.568;27.824;2023-04-03T06:24:38;6.97;;;3.75;;
9671;SDS011;4874;43.568;27.824;2023-04-03T06:27:04;8.18;;;3.80;;
9671;SDS011;4874;43.568;27.824;2023-04-03T06:32:00;8.00;;;3.45;;
9671;SDS011;4874;43.568;27.824;2023-04-03T06:36:53;8.20;;;3.65;;
9671;SDS011;4874;43.568;27.824;2023-04-03T06:41:49;6.20;;;3.55;;
9671;SDS011;4874;43.568;27.824;2023-04-03T06:44:18;6.53;;;3.80;;
9671;SDS011;4874;43.568;27.824;2023-04-03T06:46:45;7.25;;;3.90;;
9671;SDS011;4874;43.568;27.824;2023-04-03T06:49:12;7.60;;;3.60;;
9671;SDS011;4874;43.568;27.824;2023-04-03T06:51:40;7.07;;;3.83;;
9671;SDS011;4874;43.568;27.824;2023-04-03T06:54:07;5.65;;;3.80;;
9671;SDS011;4874;43.568;27.824;2023-04-03T06:56:34;7.65;;;3.63;;
9671;SDS011;4874;43.568;27.824;2023-04-03T06:59:02;9.07;;;4.30;;
9671;SDS011;4874;43.568;27.824;2023-04-03T07:01:29;7.40;;;4.53;;
9671;SDS011;4874;43.568;27.824;2023-04-03T07:03:56;5.00;;;3.33;;
9671;SDS011;4874;43.568;27.824;2023-04-03T07:06:24;7.40;;;3.83;;
9671;SDS011;4874;43.568;27.824;2023-04-03T07:08:53;7.55;;;4.53;;
9671;SDS011;4874;43.568;27.824;2023-04-03T07:11:21;10.63;;;7.15;;
9671;SDS011;4874;43.568;27.824;2023-04-03T07:13:48;7.88;;;4.70;;
9671;SDS011;4874;43.568;27.824;2023-04-03T07:16:16;9.25;;;5.30;;
9671;SDS011;4874;43.568;27.824;2023-04-03T07:18:43;6.65;;;4.25;;
9671;SDS011;4874;43.568;27.824;2023-04-03T07:21:11;7.68;;;4.65;;
9671;SDS011;4874;43.568;27.824;2023-04-03T07:23:38;6.60;;;4.40;;
9671;SDS011;4874;43.568;27.824;2023-04-03T07:26:05;8.35;;;4.68;;
9671;SDS011;4874;43.568;27.824;2023-04-03T07:28:33;6.95;;;4.65;;
9671;SDS011;4874;43.568;27.824;2023-04-03T07:31:01;8.10;;;4.47;;
9671;SDS011;4874;43.568;27.824;2023-04-03T07:33:28;5.88;;;4.00;;
9671;SDS011;4874;43.568;27.824;2023-04-03T07:35:55;5.13;;;3.80;;
9671;SDS011;4874;43.568;27.824;2023-04-03T07:38:22;7.60;;;4.45;;
9671;SDS011;4874;43.568;27.824;2023-04-03T07:40:49;6.78;;;4.43;;
9671;SDS011;4874;43.568;27.824;2023-04-03T07:43:17;5.95;;;4.32;;
9671;SDS011;4874;43.568;27.824;2023-04-03T07:45:45;7.47;;;4.40;;
9671;SDS011;4874;43.568;27.824;2023-04-03T07:48:16;6.00;;;4.15;;
9671;SDS011;4874;43.568;27.824;2023-04-03T07:50:47;6.38;;;3.78;;
9671;SDS011;4874;43.568;27.824;2023-04-03T07:53:14;6.97;;;4.07;;
9671;SDS011;4874;43.568;27.824;2023-04-03T07:55:42;8.63;;;4.28;;
9671;SDS011;4874;43.568;27.824;2023-04-03T07:58:13;6.53;;;3.95;;
9671;SDS011;4874;43.568;27.824;2023-04-03T08:00:41;4.57;;;3.53;;
9671;SDS011;4874;43.568;27.824;2023-04-03T08:03:09;6.75;;;3.97;;
9671;SDS011;4874;43.568;27.824;2023-04-03T08:05:41;5.88;;;3.83;;
9671;SDS011;4874;43.568;27.824;2023-04-03T08:08:10;7.80;;;4.57;;
9671;SDS011;4874;43.568;27.824;2023-04-03T08:10:38;6.43;;;4.55;;
9671;SDS011;4874;43.568;27.824;2023-04-03T08:13:06;6.05;;;3.92;;
9671;SDS011;4874;43.568;27.824;2023-04-03T08:15:34;7.43;;;4.38;;
9671;SDS011;4874;43.568;27.824;2023-04-03T08:18:02;9.38;;;4.35;;
9671;SDS011;4874;43.568;27.824;2023-04-03T08:20:29;6.20;;;4.22;;
9671;SDS011;4874;43.568;27.824;2023-04-03T08:22:56;5.85;;;4.13;;
9671;SDS011;4874;43.568;27.824;2023-04-03T08:25:23;6.50;;;4.00;;
9671;SDS011;4874;43.568;27.824;2023-04-03T08:27:50;7.40;;;4.47;;
9671;SDS011;4874;43.568;27.824;2023-04-03T08:30:17;5.95;;;4.32;;
9671;SDS011;4874;43.568;27.824;2023-04-03T08:32:44;7.72;;;4.50;;
9671;SDS011;4874;43.568;27.824;2023-04-03T08:35:11;6.55;;;4.15;;
9671;SDS011;4874;43.568;27.824;2023-04-03T08:37:38;5.10;;;3.63;;
9671;SDS011;4874;43.568;27.824;2023-04-03T08:40:07;5.72;;;4.43;;
9671;SDS011;4874;43.568;27.824;2023-04-03T08:45:52;7.70;;;4.85;;
9671;SDS011;4874;43.568;27.824;2023-04-03T08:48:23;6.05;;;4.10;;
9671;SDS011;4874;43.568;27.824;2023-04-03T08:51:04;5.60;;;3.25;;
9671;SDS011;4874;43.568;27.824;2023-04-03T08:53:39;5.72;;;3.83;;
9671;SDS011;4874;43.568;27.824;2023-04-03T08:56:10;5.45;;;3.70;;
9671;SDS011;4874;43.568;27.824;2023-04-03T08:58:47;6.35;;;4.32;;
9671;SDS011;4874;43.568;27.824;2023-04-03T09:01:30;5.55;;;3.97;;
9671;SDS011;4874;43.568;27.824;2023-04-03T09:04:00;5.47;;;4.00;;
9671;SDS011;4874;43.568;27.824;2023-04-03T09:06:29;7.82;;;4.10;;
9671;SDS011;4874;43.568;27.824;2023-04-03T09:09:07;4.55;;;3.53;;
9671;SDS011;4874;43.568;27.824;2023-04-03T09:17:40;7.55;;;5.57;;
9671;SDS011;4874;43.568;27.824;2023-04-03T09:22:52;7.25;;;4.47;;
9671;SDS011;4874;43.568;27.824;2023-04-03T09:25:27;4.88;;;3.70;;
9671;SDS011;4874;43.568;27.824;2023-04-03T09:28:02;5.93;;;3.83;;
9671;SDS011;4874;43.568;27.824;2023-04-03T09:30:30;5.20;;;3.47;;
9671;SDS011;4874;43.568;27.824;2023-04-03T09:32:57;5.15;;;3.60;;
9671;SDS011;4874;43.568;27.824;2023-04-03T09:35:25;5.38;;;3.45;;
9671;SDS011;4874;43.568;27.824;2023-04-03T09:41:02;5.88;;;3.55;;
9671;SDS011;4874;43.568;27.824;2023-04-03T09:49:00;4.38;;;3.00;;
9671;SDS011;4874;43.568;27.824;2023-04-03T09:51:34;4.93;;;3.83;;
9671;SDS011;4874;43.568;27.824;2023-04-03T09:54:01;5.63;;;3.67;;
9671;SDS011;4874;43.568;27.824;2023-04-03T09:57:06;5.50;;;3.55;;
9671;SDS011;4874;43.568;27.824;2023-04-03T09:59:35;6.60;;;3.60;;
9671;SDS011;4874;43.568;27.824;2023-04-03T10:02:24;4.95;;;3.55;;
9671;SDS011;4874;43.568;27.824;2023-04-03T10:04:59;5.13;;;3.35;;
9671;SDS011;4874;43.568;27.824;2023-04-03T10:07:36;6.50;;;3.85;;
9671;SDS011;4874;43.568;27.824;2023-04-03T10:13:00;6.20;;;2.95;;
9671;SDS011;4874;43.568;27.824;2023-04-03T10:15:43;5.55;;;2.83;;
9671;SDS011;4874;43.568;27.824;2023-04-03T10:20:57;4.15;;;2.95;;
9671;SDS011;4874;43.568;27.824;2023-04-03T10:23:51;4.65;;;3.03;;
9671;SDS011;4874;43.568;27.824;2023-04-03T10:26:32;4.13;;;2.78;;
9671;SDS011;4874;43.568;27.824;2023-04-03T10:31:37;4.78;;;3.05;;
9671;SDS011;4874;43.568;27.824;2023-04-03T10:34:28;7.68;;;3.13;;
9671;SDS011;4874;43.568;27.824;2023-04-03T10:37:22;4.57;;;2.80;;
9671;SDS011;4874;43.568;27.824;2023-04-03T10:39:59;4.25;;;2.70;;
9671;SDS011;4874;43.568;27.824;2023-04-03T10:53:32;4.72;;;3.10;;
9671;SDS011;4874;43.568;27.824;2023-04-03T11:01:46;6.00;;;2.40;;
9671;SDS011;4874;43.568;27.824;2023-04-03T11:04:18;4.53;;;2.50;;
9671;SDS011;4874;43.568;27.824;2023-04-03T11:06:51;7.65;;;3.90;;
9671;SDS011;4874;43.568;27.824;2023-04-03T11:09:42;4.53;;;2.25;;
9671;SDS011;4874;43.568;27.824;2023-04-03T11:12:14;4.32;;;2.38;;
9671;SDS011;4874;43.568;27.824;2023-04-03T11:14:45;3.90;;;2.35;;
9671;SDS011;4874;43.568;27.824;2023-04-03T11:20:00;3.22;;;2.10;;
9671;SDS011;4874;43.568;27.824;2023-04-03T11:25:33;3.97;;;2.53;;
9671;SDS011;4874;43.568;27.824;2023-04-03T11:28:04;3.50;;;1.90;;
9671;SDS011;4874;43.568;27.824;2023-04-03T11:36:17;3.17;;;2.20;;
9671;SDS011;4874;43.568;27.824;2023-04-03T11:38:51;4.65;;;3.03;;
9671;SDS011;4874;43.568;27.824;2023-04-03T11:41:28;4.45;;;2.30;;
9671;SDS011;4874;43.568;27.824;2023-04-03T11:43:58;4.93;;;2.40;;
9671;SDS011;4874;43.568;27.824;2023-04-03T11:47:04;8.18;;;4.28;;
9671;SDS011;4874;43.568;27.824;2023-04-03T11:49:53;6.68;;;4.07;;
9671;SDS011;4874;43.568;27.824;2023-04-03T12:09:02;7.97;;;4.30;;
9671;SDS011;4874;43.568;27.824;2023-04-03T12:11:42;6.32;;;3.92;;
9671;SDS011;4874;43.568;27.824;2023-04-03T12:14:15;6.60;;;4.10;;
9671;SDS011;4874;43.568;27.824;2023-04-03T12:16:46;6.25;;;4.03;;
9671;SDS011;4874;43.568;27.824;2023-04-03T12:29:33;6.97;;;3.97;;
9671;SDS011;4874;43.568;27.824;2023-04-03T12:38:15;6.95;;;4.07;;
9671;SDS011;4874;43.568;27.824;2023-04-03T12:44:18;5.13;;;3.97;;
9671;SDS011;4874;43.568;27.824;2023-04-03T12:47:08;6.85;;;4.50;;
9671;SDS011;4874;43.568;27.824;2023-04-03T12:49:53;7.43;;;4.63;;
9671;SDS011;4874;43.568;27.824;2023-04-03T12:55:18;6.47;;;4.30;;
9671;SDS011;4874;43.568;27.824;2023-04-03T12:57:47;7.50;;;4.60;;
9671;SDS011;4874;43.568;27.824;2023-04-03T13:00:19;6.50;;;4.25;;
9671;SDS011;4874;43.568;27.824;2023-04-03T13:02:52;8.23;;;4.57;;
9671;SDS011;4874;43.568;27.824;2023-04-03T13:05:19;7.13;;;4.35;;
9671;SDS011;4874;43.568;27.824;2023-04-03T13:07:49;8.73;;;4.75;;
9671;SDS011;4874;43.568;27.824;2023-04-03T13:10:19;7.10;;;4.30;;
9671;SDS011;4874;43.568;27.824;2023-04-03T13:12:50;6.20;;;4.07;;
9671;SDS011;4874;43.568;27.824;2023-04-03T13:15:30;9.75;;;5.22;;
9671;SDS011;4874;43.568;27.824;2023-04-03T13:18:25;8.55;;;4.53;;
9671;SDS011;4874;43.568;27.824;2023-04-03T13:21:01;6.70;;;4.55;;
9671;SDS011;4874;43.568;27.824;2023-04-03T13:23:29;6.15;;;4.68;;
9671;SDS011;4874;43.568;27.824;2023-04-03T13:26:02;6.40;;;4.57;;
9671;SDS011;4874;43.568;27.824;2023-04-03T13:28:31;7.43;;;4.88;;
9671;SDS011;4874;43.568;27.824;2023-04-03T13:31:01;7.28;;;4.55;;
9671;SDS011;4874;43.568;27.824;2023-04-03T13:33:32;6.60;;;4.53;;
9671;SDS011;4874;43.568;27.824;2023-04-03T13:38:31;6.75;;;4.80;;
9671;SDS011;4874;43.568;27.824;2023-04-03T13:41:01;8.43;;;4.60;;
9671;SDS011;4874;43.568;27.824;2023-04-03T13:43:32;7.03;;;4.80;;
9671;SDS011;4874;43.568;27.824;2023-04-03T13:53:47;8.45;;;4.90;;
9671;SDS011;4874;43.568;27.824;2023-04-03T13:58:58;6.10;;;4.35;;
9671;SDS011;4874;43.568;27.824;2023-04-03T14:01:45;7.53;;;4.25;;
9671;SDS011;4874;43.568;27.824;2023-04-03T14:04:23;8.15;;;4.68;;
9671;SDS011;4874;43.568;27.824;2023-04-03T14:06:52;6.63;;;5.30;;
9671;SDS011;4874;43.568;27.824;2023-04-03T14:09:19;7.82;;;5.50;;
9671;SDS011;4874;43.568;27.824;2023-04-03T14:11:51;7.57;;;5.05;;
9671;SDS011;4874;43.568;27.824;2023-04-03T14:14:22;7.38;;;5.22;;
9671;SDS011;4874;43.568;27.824;2023-04-03T14:16:52;9.00;;;6.15;;
9671;SDS011;4874;43.568;27.824;2023-04-03T14:19:33;9.40;;;5.38;;
9671;SDS011;4874;43.568;27.824;2023-04-03T14:22:05;8.68;;;5.55;;
9671;SDS011;4874;43.568;27.824;2023-04-03T14:24:38;7.68;;;4.75;;
9671;SDS011;4874;43.568;27.824;2023-04-03T14:27:11;9.40;;;4.68;;
9671;SDS011;4874;43.568;27.824;2023-04-03T14:29:42;9.88;;;5.80;;
9671;SDS011;4874;43.568;27.824;2023-04-03T14:32:13;7.22;;;5.30;;
9671;SDS011;4874;43.568;27.824;2023-04-03T14:34:41;10.85;;;5.40;;
9671;SDS011;4874;43.568;27.824;2023-04-03T14:37:10;10.10;;;5.60;;
9671;SDS011;4874;43.568;27.824;2023-04-03T14:39:39;10.38;;;5.80;;
9671;SDS011;4874;43.568;27.824;2023-04-03T14:42:10;9.65;;;5.30;;
9671;SDS011;4874;43.568;27.824;2023-04-03T14:44:39;5.93;;;4.07;;
9671;SDS011;4874;43.568;27.824;2023-04-03T14:47:13;7.53;;;4.80;;
9671;SDS011;4874;43.568;27.824;2023-04-03T14:49:55;7.93;;;4.90;;
9671;SDS011;4874;43.568;27.824;2023-04-03T14:52:30;8.02;;;5.50;;
9671;SDS011;4874;43.568;27.824;2023-04-03T14:54:59;7.10;;;4.97;;
9671;SDS011;4874;43.568;27.824;2023-04-03T14:57:27;8.02;;;5.10;;
9671;SDS011;4874;43.568;27.824;2023-04-03T14:59:55;8.57;;;5.07;;
9671;SDS011;4874;43.568;27.824;2023-04-03T15:04:55;8.27;;;5.22;;
9671;SDS011;4874;43.568;27.824;2023-04-03T15:07:24;6.95;;;4.20;;
9671;SDS011;4874;43.568;27.824;2023-04-03T15:09:53;8.20;;;4.70;;
9671;SDS011;4874;43.568;27.824;2023-04-03T15:12:23;9.45;;;5.40;;
9671;SDS011;4874;43.568;27.824;2023-04-03T15:14:51;8.50;;;5.72;;
9671;SDS011;4874;43.568;27.824;2023-04-03T15:17:26;10.27;;;5.53;;
9671;SDS011;4874;43.568;27.824;2023-04-03T15:19:53;7.50;;;4.55;;
9671;SDS011;4874;43.568;27.824;2023-04-03T15:22:20;11.57;;;5.80;;
9671;SDS011;4874;43.568;27.824;2023-04-03T15:24:47;11.30;;;7.40;;
9671;SDS011;4874;43.568;27.824;2023-04-03T15:29:42;9.73;;;6.45;;
9671;SDS011;4874;43.568;27.824;2023-04-03T15:32:10;12.93;;;7.18;;
9671;SDS011;4874;43.568;27.824;2023-04-03T15:34:37;12.00;;;7.45;;
9671;SDS011;4874;43.568;27.824;2023-04-03T15:37:05;13.63;;;7.78;;
9671;SDS011;4874;43.568;27.824;2023-04-03T15:39:32;12.95;;;7.43;;
9671;SDS011;4874;43.568;27.824;2023-04-03T15:41:59;12.45;;;7.18;;
9671;SDS011;4874;43.568;27.824;2023-04-03T15:44:34;9.93;;;6.15;;
9671;SDS011;4874;43.568;27.824;2023-04-03T15:47:02;11.10;;;6.55;;
9671;SDS011;4874;43.568;27.824;2023-04-03T15:49:29;12.95;;;7.45;;
9671;SDS011;4874;43.568;27.824;2023-04-03T15:51:59;11.07;;;6.82;;
9671;SDS011;4874;43.568;27.824;2023-04-03T15:54:26;11.05;;;6.50;;
9671;SDS011;4874;43.568;27.824;2023-04-03T15:56:55;9.13;;;6.05;;
9671;SDS011;4874;43.568;27.824;2023-04-03T15:59:22;10.73;;;6.20;;
9671;SDS011;4874;43.568;27.824;2023-04-03T16:01:49;10.25;;;6.68;;
9671;SDS011;4874;43.568;27.824;2023-04-03T16:04:18;10.95;;;6.88;;
9671;SDS011;4874;43.568;27.824;2023-04-03T16:06:47;13.43;;;7.80;;
9671;SDS011;4874;43.568;27.824;2023-04-03T16:09:14;11.60;;;7.82;;
9671;SDS011;4874;43.568;27.824;2023-04-03T16:11:41;11.45;;;7.30;;
9671;SDS011;4874;43.568;27.824;2023-04-03T16:14:09;12.57;;;7.57;;
9671;SDS011;4874;43.568;27.824;2023-04-03T16:19:03;15.88;;;7.95;;
9671;SDS011;4874;43.568;27.824;2023-04-03T16:21:31;13.32;;;7.95;;
9671;SDS011;4874;43.568;27.824;2023-04-03T16:23:58;13.75;;;8.18;;
9671;SDS011;4874;43.568;27.824;2023-04-03T16:26:27;12.90;;;7.65;;
9671;SDS011;4874;43.568;27.824;2023-04-03T16:28:54;12.43;;;8.02;;
9671;SDS011;4874;43.568;27.824;2023-04-03T16:31:22;12.10;;;7.30;;
9671;SDS011;4874;43.568;27.824;2023-04-03T16:33:50;14.70;;;8.23;;
9671;SDS011;4874;43.568;27.824;2023-04-03T16:36:17;12.48;;;8.27;;
9671;SDS011;4874;43.568;27.824;2023-04-03T16:38:44;15.05;;;8.68;;
9671;SDS011;4874;43.568;27.824;2023-04-03T16:41:11;16.20;;;9.93;;
9671;SDS011;4874;43.568;27.824;2023-04-03T16:43:38;18.77;;;11.82;;
9671;SDS011;4874;43.568;27.824;2023-04-03T16:48:31;18.50;;;10.50;;
9671;SDS011;4874;43.568;27.824;2023-04-03T16:50:59;14.90;;;9.32;;
9671;SDS011;4874;43.568;27.824;2023-04-03T16:53:26;16.67;;;9.27;;
9671;SDS011;4874;43.568;27.824;2023-04-03T16:55:53;15.73;;;8.20;;
9671;SDS011;4874;43.568;27.824;2023-04-03T16:58:20;15.10;;;8.13;;
9671;SDS011;4874;43.568;27.824;2023-04-03T17:00:49;15.10;;;7.65;;
9671;SDS011;4874;43.568;27.824;2023-04-03T17:03:16;12.10;;;7.30;;
9671;SDS011;4874;43.568;27.824;2023-04-03T17:05:46;12.45;;;7.43;;
9671;SDS011;4874;43.568;27.824;2023-04-03T17:08:13;12.20;;;7.20;;
9671;SDS011;4874;43.568;27.824;2023-04-03T17:10:41;11.32;;;6.75;;
9671;SDS011;4874;43.568;27.824;2023-04-03T17:15:34;11.00;;;6.13;;
9671;SDS011;4874;43.568;27.824;2023-04-03T17:18:02;10.23;;;6.28;;
9671;SDS011;4874;43.568;27.824;2023-04-03T17:20:29;11.45;;;6.72;;
9671;SDS011;4874;43.568;27.824;2023-04-03T17:22:56;12.63;;;7.35;;
9671;SDS011;4874;43.568;27.824;2023-04-03T17:25:23;11.00;;;7.03;;
9671;SDS011;4874;43.568;27.824;2023-04-03T17:27:50;16.48;;;9.88;;
9671;SDS011;4874;43.568;27.824;2023-04-03T17:30:17;11.30;;;7.32;;
9671;SDS011;4874;43.568;27.824;2023-04-03T17:35:11;12.18;;;6.30;;
9671;SDS011;4874;43.568;27.824;2023-04-03T17:40:04;10.25;;;6.22;;
9671;SDS011;4874;43.568;27.824;2023-04-03T17:42:32;10.13;;;5.68;;
9671;SDS011;4874;43.568;27.824;2023-04-03T17:49:54;12.02;;;6.07;;
9671;SDS011;4874;43.568;27.824;2023-04-03T17:52:21;12.02;;;6.45;;
9671;SDS011;4874;43.568;27.824;2023-04-03T17:54:50;11.02;;;6.93;;
9671;SDS011;4874;43.568;27.824;2023-04-03T17:57:18;12.85;;;7.05;;
9671;SDS011;4874;43.568;27.824;2023-04-03T17:59:46;10.90;;;7.30;;
9671;SDS011;4874;43.568;27.824;2023-04-03T18:02:13;11.95;;;7.00;;
9671;SDS011;4874;43.568;27.824;2023-04-03T18:04:41;11.80;;;7.07;;
9671;SDS011;4874;43.568;27.824;2023-04-03T18:07:08;13.32;;;7.18;;
9671;SDS011;4874;43.568;27.824;2023-04-03T18:09:35;16.88;;;8.73;;
9671;SDS011;4874;43.568;27.824;2023-04-03T18:12:06;12.18;;;7.22;;
9671;SDS011;4874;43.568;27.824;2023-04-03T18:14:35;11.23;;;6.38;;
9671;SDS011;4874;43.568;27.824;2023-04-03T18:17:03;11.40;;;7.25;;
9671;SDS011;4874;43.568;27.824;2023-04-03T18:19:30;11.00;;;6.97;;
9671;SDS011;4874;43.568;27.824;2023-04-03T18:21:59;10.43;;;6.13;;
9671;SDS011;4874;43.568;27.824;2023-04-03T18:24:33;11.68;;;7.10;;
9671;SDS011;4874;43.568;27.824;2023-04-03T18:27:03;10.70;;;6.35;;
9671;SDS011;4874;43.568;27.824;2023-04-03T18:29:32;10.10;;;6.28;;
9671;SDS011;4874;43.568;27.824;2023-04-03T18:32:03;9.98;;;5.82;;
9671;SDS011;4874;43.568;27.824;2023-04-03T18:34:33;10.65;;;6.38;;
9671;SDS011;4874;43.568;27.824;2023-04-03T18:37:00;11.32;;;6.22;;
9671;SDS011;4874;43.568;27.824;2023-04-03T18:39:28;10.02;;;5.95;;